Fugro Searcher — 3EUY6 — position and weather

sailwx.info

Track history (hours):
 
Tides and Currents Weather Stations Pressure Air Temp Water Temp Dewpoint Dewpoint Depression Visibility Wind Speed Wind Dir Waves Ship Positions

Fugro Searcher

Last reported at 2018-Apr-06 00:32 UTC. Time now 2018-Apr-22 14:35 UTC.
Position S 23°18' W 043°01'.
Warning: this ship's position is 16 days out of date.

Length 65 m; draft 5.4 m.

Type: Ship. MMSI: 371931000.

Date/timePositionNaut miles runAvg speedWind from/ knotsBaromVisibWave heightAir tempDewpointWater temp
2018-Apr-06 00:32S 23°18' W 043°01'0 8.8
2018-Apr-06 00:29S 23°17' W 043°01'4 8.7
2018-Apr-06 00:01S 23°13' W 043°02'5 9.0
2018-Apr-05 23:30S 23°09' W 043°03'4 8.8
2018-Apr-05 23:01S 23°05' W 043°05'4 8.8
2018-Apr-05 22:31S 23°00' W 043°07'5 9.1
2018-Apr-05 22:00S 22°56' W 043°08'4 7.4
2018-Apr-05 21:31S 22°53' W 043°08'0 0.5
2018-Apr-05 20:58S 22°53' W 043°07'0 0.0
2018-Apr-05 20:28S 22°53' W 043°07'0 0.0
2018-Apr-05 19:58S 22°53' W 043°07'0 0.0
2018-Apr-05 19:28S 22°53' W 043°07'0 0.0
2018-Apr-05 18:58S 22°53' W 043°07'0 0.0
2018-Apr-05 18:28S 22°53' W 043°07'0 0.0
2018-Apr-05 17:58S 22°53' W 043°07'0 0.0
2018-Apr-05 17:28S 22°53' W 043°07'0 0.0
2018-Apr-05 16:58S 22°53' W 043°07'0 0.0
2018-Apr-05 16:28S 22°53' W 043°07'0 0.0
2018-Apr-05 15:58S 22°53' W 043°07'0 0.0
2018-Apr-05 15:28S 22°53' W 043°07'0 0.0
2018-Apr-05 14:58S 22°53' W 043°07'0 0.0
2018-Apr-05 14:25S 22°53' W 043°07'0 0.0
2018-Apr-05 13:58S 22°53' W 043°07'0 0.0
2018-Apr-05 13:28S 22°53' W 043°07'0 0.0
2018-Apr-05 12:58S 22°53' W 043°07'0 0.0
2018-Apr-05 12:28S 22°53' W 043°07'0 0.0
2018-Apr-05 11:58S 22°53' W 043°07'0 0.0
2018-Apr-05 11:28S 22°53' W 043°07'0 0.0
2018-Apr-05 10:46S 22°53' W 043°07'0 0.0
2018-Apr-05 10:28S 22°53' W 043°07'0 0.8
2018-Apr-05 10:00S 22°53' W 043°08'3 5.8
2018-Apr-05 09:30S 22°55' W 043°08'  
Track history (hours):
 
Tides and Currents Weather Stations Pressure Air Temp Water Temp Dewpoint Dewpoint Depression Visibility Wind Speed Wind Dir Waves Ship Positions

Fugro Searcher

Last reported at 2018-Apr-06 00:32 UTC. Time now 2018-Apr-22 14:35 UTC.
Position S 23°18' W 043°01'.
Warning: this ship's position is 16 days out of date.

Length 65 m; draft 5.4 m.

Type: Ship. MMSI: 371931000.

Date/timePositionNaut miles runAvg speedWind from/ knotsBaromVisibWave heightAir tempDewpointWater temp
2018-Apr-06 00:32S 23°18' W 043°01'0 8.8
2018-Apr-06 00:29S 23°17' W 043°01'4 8.7
2018-Apr-06 00:01S 23°13' W 043°02'5 9.0
2018-Apr-05 23:30S 23°09' W 043°03'4 8.8
2018-Apr-05 23:01S 23°05' W 043°05'4 8.8
2018-Apr-05 22:31S 23°00' W 043°07'5 9.1
2018-Apr-05 22:00S 22°56' W 043°08'4 7.4
2018-Apr-05 21:31S 22°53' W 043°08'0 0.5
2018-Apr-05 20:58S 22°53' W 043°07'0 0.0
2018-Apr-05 20:28S 22°53' W 043°07'0 0.0
2018-Apr-05 19:58S 22°53' W 043°07'0 0.0
2018-Apr-05 19:28S 22°53' W 043°07'0 0.0
2018-Apr-05 18:58S 22°53' W 043°07'0 0.0
2018-Apr-05 18:28S 22°53' W 043°07'0 0.0
2018-Apr-05 17:58S 22°53' W 043°07'0 0.0
2018-Apr-05 17:28S 22°53' W 043°07'0 0.0
2018-Apr-05 16:58S 22°53' W 043°07'0 0.0
2018-Apr-05 16:28S 22°53' W 043°07'0 0.0
2018-Apr-05 15:58S 22°53' W 043°07'0 0.0
2018-Apr-05 15:28S 22°53' W 043°07'0 0.0
2018-Apr-05 14:58S 22°53' W 043°07'0 0.0
2018-Apr-05 14:25S 22°53' W 043°07'0 0.0
2018-Apr-05 13:58S 22°53' W 043°07'0 0.0
2018-Apr-05 13:28S 22°53' W 043°07'0 0.0
2018-Apr-05 12:58S 22°53' W 043°07'0 0.0
2018-Apr-05 12:28S 22°53' W 043°07'0 0.0
2018-Apr-05 11:58S 22°53' W 043°07'0 0.0
2018-Apr-05 11:28S 22°53' W 043°07'0 0.0
2018-Apr-05 10:46S 22°53' W 043°07'0 0.0
2018-Apr-05 10:28S 22°53' W 043°07'0 0.8
2018-Apr-05 10:00S 22°53' W 043°08'3 5.8
2018-Apr-05 09:30S 22°55' W 043°08'  

Dump ship's entire track history